LNR641N KLAX-EGNX
Flight info
| Callsign | LNR641N |
|---|---|
| Flight time | N/A |
| Altitude | 31000 |
| Route | SEBBY3 DAG J100 BCE DCT KD57Q DCT KD66S DCT KD81W DCT KP03A DCT KP09C DCT KP18G DCT 49N090W 5130N08000W/N0491F330 5330N07000W DCT DORYY/M084F330 DCT 57N050W 58N040W 58N030W 57N020W DCT BILTO/N0483F330 DCT BEGID DCT KUGUR DCT MAKUX |
| Aircraft | B77L/H-SDE1E2E3FGHIJ2J3J4J5M1RWXY/LB1D1 |
Departure
| Time | 2026-05-03 22:53 |
|---|---|
| Airport | Los Angeles International Airport (KLAX) |
Arrival
| Time | N/A |
|---|---|
| Airport | East Midlands Airport (EGNX) |
| Time | Latitude | Longitude | Altitude | Speed | Heading |
|---|---|---|---|---|---|
| 2026-05-03 22:24 | 33.93404 | -118.38837 | 97 ft | 0 kts | 173° |
| 2026-05-03 22:45 | 33.93409 | -118.38837 | 99 ft | 3 kts | 170° |
| 2026-05-03 22:45 | 33.93421 | -118.38842 | 97 ft | 2 kts | 173° |
| 2026-05-03 22:45 | 33.93444 | -118.38848 | 96 ft | 4 kts | 137° |
| 2026-05-03 22:46 | 33.93458 | -118.38868 | 97 ft | 4 kts | 128° |
| 2026-05-03 22:46 | 33.93468 | -118.38883 | 95 ft | 0 kts | 128° |
| 2026-05-03 22:48 | 33.93467 | -118.38855 | 99 ft | 8 kts | 87° |
| 2026-05-03 22:48 | 33.93496 | -118.38802 | 99 ft | 8 kts | 19° |
| 2026-05-03 22:48 | 33.93549 | -118.38774 | 101 ft | 9 kts | 37° |
| 2026-05-03 22:49 | 33.93569 | -118.38706 | 97 ft | 9 kts | 84° |
| 2026-05-03 22:49 | 33.93576 | -118.38633 | 100 ft | 9 kts | 84° |
| 2026-05-03 22:49 | 33.93583 | -118.38558 | 98 ft | 10 kts | 82° |
| 2026-05-03 22:49 | 33.93597 | -118.38435 | 101 ft | 21 kts | 82° |
| 2026-05-03 22:50 | 33.93608 | -118.38336 | 100 ft | 8 kts | 77° |
| 2026-05-03 22:50 | 33.93645 | -118.38288 | 101 ft | 11 kts | 19° |
| 2026-05-03 22:50 | 33.93785 | -118.38297 | 102 ft | 27 kts | 351° |
| 2026-05-03 22:50 | 33.93865 | -118.38309 | 103 ft | 4 kts | 353° |
| 2026-05-03 22:51 | 33.93895 | -118.38313 | 104 ft | 4 kts | 353° |
| 2026-05-03 22:51 | 33.93933 | -118.38321 | 103 ft | 7 kts | 339° |
| 2026-05-03 22:51 | 33.93950 | -118.38364 | 106 ft | 0 kts | 264° |
| 2026-05-03 22:52 | 33.93948 | -118.38384 | 105 ft | 13 kts | 262° |
| 2026-05-03 22:52 | 33.93906 | -118.38782 | 100 ft | 85 kts | 263° |
| 2026-05-03 22:53 | 33.93804 | -118.39773 | 104 ft | 150 kts | 263° |
| 2026-05-03 22:53 | 33.93649 | -118.41236 | 165 ft | 193 kts | 262° |
| 2026-05-03 22:53 | 33.93477 | -118.42850 | 679 ft | 196 kts | 261° |
| 2026-05-03 22:53 | 33.93217 | -118.44474 | 1309 ft | 197 kts | 251° |
| 2026-05-03 22:54 | 33.92521 | -118.45887 | 1846 ft | 197 kts | 221° |
| 2026-05-03 22:54 | 33.91264 | -118.46600 | 2207 ft | 209 kts | 188° |
| 2026-05-03 22:54 | 33.89800 | -118.46314 | 2532 ft | 224 kts | 155° |
| 2026-05-03 22:54 | 33.88597 | -118.45058 | 2860 ft | 239 kts | 124° |
| 2026-05-03 22:55 | 33.87978 | -118.43207 | 3287 ft | 246 kts | 108° |
| 2026-05-03 22:55 | 33.87499 | -118.41183 | 3647 ft | 258 kts | 107° |
| 2026-05-03 22:55 | 33.87012 | -118.39074 | 4258 ft | 264 kts | 108° |
| 2026-05-03 22:55 | 33.86475 | -118.36943 | 4925 ft | 267 kts | 109° |
| 2026-05-03 22:56 | 33.85929 | -118.34807 | 5654 ft | 269 kts | 109° |